sensor_id;sensor_type;location;lat;lon;timestamp;P1;durP1;ratioP1;P2;durP2;ratioP2
10596;SDS011;5346;48.766;8.674;2023-12-20T00:01:56;3.13;;;0.70;;
10596;SDS011;5346;48.766;8.674;2023-12-20T00:04:37;1.33;;;0.70;;
10596;SDS011;5346;48.766;8.674;2023-12-20T00:07:04;1.00;;;0.80;;
10596;SDS011;5346;48.766;8.674;2023-12-20T00:09:39;3.13;;;0.73;;
10596;SDS011;5346;48.766;8.674;2023-12-20T00:12:07;0.90;;;0.60;;
10596;SDS011;5346;48.766;8.674;2023-12-20T00:14:41;0.30;;;0.30;;
10596;SDS011;5346;48.766;8.674;2023-12-20T00:17:15;0.80;;;0.50;;
10596;SDS011;5346;48.766;8.674;2023-12-20T00:19:49;1.43;;;0.63;;
10596;SDS011;5346;48.766;8.674;2023-12-20T00:22:17;1.37;;;0.50;;
10596;SDS011;5346;48.766;8.674;2023-12-20T00:24:52;3.10;;;0.47;;
10596;SDS011;5346;48.766;8.674;2023-12-20T00:27:21;0.20;;;0.20;;
10596;SDS011;5346;48.766;8.674;2023-12-20T00:29:56;1.37;;;0.40;;
10596;SDS011;5346;48.766;8.674;2023-12-20T00:32:23;1.70;;;0.40;;
10596;SDS011;5346;48.766;8.674;2023-12-20T00:34:51;0.30;;;0.30;;
10596;SDS011;5346;48.766;8.674;2023-12-20T00:37:26;0.20;;;0.20;;
10596;SDS011;5346;48.766;8.674;2023-12-20T00:40:02;0.50;;;0.30;;
10596;SDS011;5346;48.766;8.674;2023-12-20T00:42:37;0.30;;;0.30;;
10596;SDS011;5346;48.766;8.674;2023-12-20T00:45:05;0.27;;;0.27;;
10596;SDS011;5346;48.766;8.674;2023-12-20T00:47:41;0.60;;;0.37;;
10596;SDS011;5346;48.766;8.674;2023-12-20T00:50:15;0.20;;;0.20;;
10596;SDS011;5346;48.766;8.674;2023-12-20T00:52:55;1.07;;;0.40;;
10596;SDS011;5346;48.766;8.674;2023-12-20T00:55:23;0.50;;;0.40;;
10596;SDS011;5346;48.766;8.674;2023-12-20T00:57:58;0.00;;;0.00;;
10596;SDS011;5346;48.766;8.674;2023-12-20T01:00:26;0.83;;;0.13;;
10596;SDS011;5346;48.766;8.674;2023-12-20T01:03:00;0.13;;;0.10;;
10596;SDS011;5346;48.766;8.674;2023-12-20T01:05:34;1.60;;;0.13;;
10596;SDS011;5346;48.766;8.674;2023-12-20T01:08:08;0.07;;;0.07;;
10596;SDS011;5346;48.766;8.674;2023-12-20T01:10:37;3.30;;;0.17;;
10596;SDS011;5346;48.766;8.674;2023-12-20T01:13:13;0.20;;;0.20;;
10596;SDS011;5346;48.766;8.674;2023-12-20T01:15:40;0.40;;;0.37;;
10596;SDS011;5346;48.766;8.674;2023-12-20T01:18:14;0.10;;;0.10;;
10596;SDS011;5346;48.766;8.674;2023-12-20T01:20:42;0.13;;;0.10;;
10596;SDS011;5346;48.766;8.674;2023-12-20T01:23:09;0.10;;;0.10;;
10596;SDS011;5346;48.766;8.674;2023-12-20T01:25:44;0.20;;;0.20;;
10596;SDS011;5346;48.766;8.674;2023-12-20T01:28:18;0.43;;;0.10;;
10596;SDS011;5346;48.766;8.674;2023-12-20T01:30:46;0.13;;;0.13;;
10596;SDS011;5346;48.766;8.674;2023-12-20T01:33:14;0.17;;;0.17;;
10596;SDS011;5346;48.766;8.674;2023-12-20T01:35:48;0.10;;;0.10;;
10596;SDS011;5346;48.766;8.674;2023-12-20T01:38:16;0.20;;;0.17;;
10596;SDS011;5346;48.766;8.674;2023-12-20T01:40:51;0.20;;;0.20;;
10596;SDS011;5346;48.766;8.674;2023-12-20T01:43:19;0.13;;;0.10;;
10596;SDS011;5346;48.766;8.674;2023-12-20T01:45:58;0.20;;;0.20;;
10596;SDS011;5346;48.766;8.674;2023-12-20T01:48:27;0.00;;;0.00;;
10596;SDS011;5346;48.766;8.674;2023-12-20T01:51:02;0.23;;;0.10;;
10596;SDS011;5346;48.766;8.674;2023-12-20T01:53:38;0.10;;;0.10;;
10596;SDS011;5346;48.766;8.674;2023-12-20T01:56:07;0.00;;;0.00;;
10596;SDS011;5346;48.766;8.674;2023-12-20T01:58:39;0.00;;;0.00;;
10596;SDS011;5346;48.766;8.674;2023-12-20T02:01:17;0.10;;;0.10;;
10596;SDS011;5346;48.766;8.674;2023-12-20T02:03:47;0.77;;;0.33;;
10596;SDS011;5346;48.766;8.674;2023-12-20T02:06:31;1.07;;;0.10;;
10596;SDS011;5346;48.766;8.674;2023-12-20T02:09:00;0.07;;;0.07;;
10596;SDS011;5346;48.766;8.674;2023-12-20T02:11:36;0.30;;;0.10;;
10596;SDS011;5346;48.766;8.674;2023-12-20T02:14:07;0.00;;;0.00;;
10596;SDS011;5346;48.766;8.674;2023-12-20T02:16:41;0.20;;;0.20;;
10596;SDS011;5346;48.766;8.674;2023-12-20T02:19:12;0.10;;;0.10;;
10596;SDS011;5346;48.766;8.674;2023-12-20T02:21:50;0.10;;;0.10;;
10596;SDS011;5346;48.766;8.674;2023-12-20T02:24:38;0.20;;;0.17;;
10596;SDS011;5346;48.766;8.674;2023-12-20T02:27:12;0.20;;;0.20;;
10596;SDS011;5346;48.766;8.674;2023-12-20T02:29:52;0.17;;;0.17;;
10596;SDS011;5346;48.766;8.674;2023-12-20T02:32:20;0.10;;;0.10;;
10596;SDS011;5346;48.766;8.674;2023-12-20T02:34:57;0.10;;;0.10;;
10596;SDS011;5346;48.766;8.674;2023-12-20T02:37:32;0.10;;;0.10;;
10596;SDS011;5346;48.766;8.674;2023-12-20T02:40:08;1.33;;;0.20;;
10596;SDS011;5346;48.766;8.674;2023-12-20T02:42:36;0.20;;;0.20;;
10596;SDS011;5346;48.766;8.674;2023-12-20T02:45:10;0.00;;;0.00;;
10596;SDS011;5346;48.766;8.674;2023-12-20T02:47:44;0.87;;;0.50;;
10596;SDS011;5346;48.766;8.674;2023-12-20T02:50:18;0.10;;;0.10;;
10596;SDS011;5346;48.766;8.674;2023-12-20T02:52:52;0.10;;;0.10;;
10596;SDS011;5346;48.766;8.674;2023-12-20T02:55:27;2.53;;;0.20;;
10596;SDS011;5346;48.766;8.674;2023-12-20T02:58:00;0.20;;;0.13;;
10596;SDS011;5346;48.766;8.674;2023-12-20T03:00:37;0.80;;;0.13;;
10596;SDS011;5346;48.766;8.674;2023-12-20T03:03:12;0.10;;;0.10;;
10596;SDS011;5346;48.766;8.674;2023-12-20T03:05:52;0.20;;;0.10;;
10596;SDS011;5346;48.766;8.674;2023-12-20T03:08:20;0.13;;;0.10;;
10596;SDS011;5346;48.766;8.674;2023-12-20T03:10:59;0.20;;;0.13;;
10596;SDS011;5346;48.766;8.674;2023-12-20T03:13:26;0.10;;;0.10;;
10596;SDS011;5346;48.766;8.674;2023-12-20T03:16:00;0.10;;;0.10;;
10596;SDS011;5346;48.766;8.674;2023-12-20T03:18:40;0.10;;;0.10;;
10596;SDS011;5346;48.766;8.674;2023-12-20T03:21:14;0.10;;;0.10;;
10596;SDS011;5346;48.766;8.674;2023-12-20T03:23:50;0.10;;;0.10;;
10596;SDS011;5346;48.766;8.674;2023-12-20T03:26:25;0.20;;;0.20;;
10596;SDS011;5346;48.766;8.674;2023-12-20T03:28:53;0.20;;;0.20;;
10596;SDS011;5346;48.766;8.674;2023-12-20T03:31:27;0.10;;;0.10;;
10596;SDS011;5346;48.766;8.674;2023-12-20T03:34:01;0.43;;;0.20;;
10596;SDS011;5346;48.766;8.674;2023-12-20T03:36:35;2.03;;;0.20;;
10596;SDS011;5346;48.766;8.674;2023-12-20T03:39:03;0.60;;;0.20;;
10596;SDS011;5346;48.766;8.674;2023-12-20T03:41:31;0.10;;;0.10;;
10596;SDS011;5346;48.766;8.674;2023-12-20T03:44:06;0.20;;;0.20;;
10596;SDS011;5346;48.766;8.674;2023-12-20T03:46:33;0.20;;;0.20;;
10596;SDS011;5346;48.766;8.674;2023-12-20T03:49:08;0.20;;;0.20;;
10596;SDS011;5346;48.766;8.674;2023-12-20T03:51:44;1.70;;;0.20;;
10596;SDS011;5346;48.766;8.674;2023-12-20T03:54:18;0.20;;;0.20;;
10596;SDS011;5346;48.766;8.674;2023-12-20T03:56:52;0.10;;;0.10;;
10596;SDS011;5346;48.766;8.674;2023-12-20T03:59:20;0.30;;;0.20;;
10596;SDS011;5346;48.766;8.674;2023-12-20T04:01:56;0.00;;;0.00;;
10596;SDS011;5346;48.766;8.674;2023-12-20T04:04:37;0.63;;;0.10;;
10596;SDS011;5346;48.766;8.674;2023-12-20T04:07:05;0.10;;;0.10;;
10596;SDS011;5346;48.766;8.674;2023-12-20T04:09:40;0.10;;;0.10;;
10596;SDS011;5346;48.766;8.674;2023-12-20T04:12:08;0.10;;;0.10;;
10596;SDS011;5346;48.766;8.674;2023-12-20T04:14:36;0.10;;;0.10;;
10596;SDS011;5346;48.766;8.674;2023-12-20T04:17:14;0.20;;;0.10;;
10596;SDS011;5346;48.766;8.674;2023-12-20T04:19:43;0.20;;;0.17;;
10596;SDS011;5346;48.766;8.674;2023-12-20T04:22:19;0.20;;;0.20;;
10596;SDS011;5346;48.766;8.674;2023-12-20T04:24:55;0.57;;;0.20;;
10596;SDS011;5346;48.766;8.674;2023-12-20T04:27:30;0.10;;;0.10;;
10596;SDS011;5346;48.766;8.674;2023-12-20T04:30:04;0.20;;;0.20;;
10596;SDS011;5346;48.766;8.674;2023-12-20T04:32:32;0.13;;;0.13;;
10596;SDS011;5346;48.766;8.674;2023-12-20T04:35:07;0.20;;;0.13;;
10596;SDS011;5346;48.766;8.674;2023-12-20T04:37:35;0.50;;;0.30;;
10596;SDS011;5346;48.766;8.674;2023-12-20T04:40:11;0.87;;;0.10;;
10596;SDS011;5346;48.766;8.674;2023-12-20T04:42:39;0.20;;;0.20;;
10596;SDS011;5346;48.766;8.674;2023-12-20T04:45:19;0.40;;;0.40;;
10596;SDS011;5346;48.766;8.674;2023-12-20T04:47:47;0.57;;;0.57;;
10596;SDS011;5346;48.766;8.674;2023-12-20T04:50:20;0.47;;;0.37;;
10596;SDS011;5346;48.766;8.674;2023-12-20T04:52:54;0.50;;;0.37;;
10596;SDS011;5346;48.766;8.674;2023-12-20T04:55:26;0.43;;;0.43;;
10596;SDS011;5346;48.766;8.674;2023-12-20T04:58:00;0.60;;;0.57;;
10596;SDS011;5346;48.766;8.674;2023-12-20T05:00:30;0.30;;;0.30;;
10596;SDS011;5346;48.766;8.674;2023-12-20T05:03:04;0.40;;;0.37;;
10596;SDS011;5346;48.766;8.674;2023-12-20T05:05:45;0.40;;;0.40;;
10596;SDS011;5346;48.766;8.674;2023-12-20T05:08:20;0.23;;;0.23;;
10596;SDS011;5346;48.766;8.674;2023-12-20T05:10:48;0.40;;;0.40;;
10596;SDS011;5346;48.766;8.674;2023-12-20T05:13:16;1.10;;;0.83;;
10596;SDS011;5346;48.766;8.674;2023-12-20T05:16:03;4.53;;;0.87;;
10596;SDS011;5346;48.766;8.674;2023-12-20T05:18:31;0.80;;;0.67;;
10596;SDS011;5346;48.766;8.674;2023-12-20T05:21:06;0.80;;;0.70;;
10596;SDS011;5346;48.766;8.674;2023-12-20T05:23:40;0.80;;;0.80;;
10596;SDS011;5346;48.766;8.674;2023-12-20T05:26:08;1.00;;;0.90;;
10596;SDS011;5346;48.766;8.674;2023-12-20T05:28:38;1.57;;;0.80;;
10596;SDS011;5346;48.766;8.674;2023-12-20T05:31:12;0.83;;;0.70;;
10596;SDS011;5346;48.766;8.674;2023-12-20T05:33:40;0.73;;;0.73;;
10596;SDS011;5346;48.766;8.674;2023-12-20T05:36:17;0.73;;;0.73;;
10596;SDS011;5346;48.766;8.674;2023-12-20T05:38:54;0.60;;;0.60;;
10596;SDS011;5346;48.766;8.674;2023-12-20T05:41:30;0.77;;;0.70;;
10596;SDS011;5346;48.766;8.674;2023-12-20T05:43:57;0.63;;;0.50;;
10596;SDS011;5346;48.766;8.674;2023-12-20T05:46:31;0.50;;;0.50;;
10596;SDS011;5346;48.766;8.674;2023-12-20T05:48:59;0.93;;;0.57;;
10596;SDS011;5346;48.766;8.674;2023-12-20T05:51:35;0.60;;;0.50;;
10596;SDS011;5346;48.766;8.674;2023-12-20T05:54:10;0.30;;;0.23;;
10596;SDS011;5346;48.766;8.674;2023-12-20T05:56:37;2.77;;;0.40;;
10596;SDS011;5346;48.766;8.674;2023-12-20T05:59:11;0.43;;;0.43;;
10596;SDS011;5346;48.766;8.674;2023-12-20T06:01:39;0.30;;;0.30;;
10596;SDS011;5346;48.766;8.674;2023-12-20T06:04:06;0.20;;;0.20;;
10596;SDS011;5346;48.766;8.674;2023-12-20T06:06:43;0.40;;;0.40;;
10596;SDS011;5346;48.766;8.674;2023-12-20T06:09:17;0.30;;;0.30;;
10596;SDS011;5346;48.766;8.674;2023-12-20T06:11:54;1.70;;;0.40;;
10596;SDS011;5346;48.766;8.674;2023-12-20T06:14:22;0.40;;;0.30;;
10596;SDS011;5346;48.766;8.674;2023-12-20T06:17:00;0.40;;;0.40;;
10596;SDS011;5346;48.766;8.674;2023-12-20T06:19:35;0.40;;;0.30;;
10596;SDS011;5346;48.766;8.674;2023-12-20T06:22:09;0.40;;;0.40;;
10596;SDS011;5346;48.766;8.674;2023-12-20T06:24:37;0.73;;;0.73;;
10596;SDS011;5346;48.766;8.674;2023-12-20T06:27:12;1.30;;;0.90;;
10596;SDS011;5346;48.766;8.674;2023-12-20T06:29:46;1.10;;;0.90;;
10596;SDS011;5346;48.766;8.674;2023-12-20T06:32:13;1.30;;;1.10;;
10596;SDS011;5346;48.766;8.674;2023-12-20T06:34:48;1.03;;;0.93;;
10596;SDS011;5346;48.766;8.674;2023-12-20T06:37:23;1.47;;;1.10;;
10596;SDS011;5346;48.766;8.674;2023-12-20T06:39:57;2.77;;;1.60;;
10596;SDS011;5346;48.766;8.674;2023-12-20T06:42:58;12.47;;;2.17;;
10596;SDS011;5346;48.766;8.674;2023-12-20T06:45:38;26.40;;;3.33;;
10596;SDS011;5346;48.766;8.674;2023-12-20T06:48:19;5.27;;;2.07;;
10596;SDS011;5346;48.766;8.674;2023-12-20T06:50:53;2.57;;;2.20;;
10596;SDS011;5346;48.766;8.674;2023-12-20T06:53:27;3.30;;;2.93;;
10596;SDS011;5346;48.766;8.674;2023-12-20T06:55:57;5.07;;;3.40;;
10596;SDS011;5346;48.766;8.674;2023-12-20T06:58:32;5.80;;;3.33;;
10596;SDS011;5346;48.766;8.674;2023-12-20T07:01:11;5.23;;;3.60;;
10596;SDS011;5346;48.766;8.674;2023-12-20T07:03:45;8.23;;;4.30;;
10596;SDS011;5346;48.766;8.674;2023-12-20T07:06:26;11.67;;;4.33;;
10596;SDS011;5346;48.766;8.674;2023-12-20T07:09:00;7.70;;;3.97;;
10596;SDS011;5346;48.766;8.674;2023-12-20T07:11:28;13.67;;;3.60;;
10596;SDS011;5346;48.766;8.674;2023-12-20T07:14:02;5.80;;;3.40;;
10596;SDS011;5346;48.766;8.674;2023-12-20T07:16:36;5.53;;;3.40;;
10596;SDS011;5346;48.766;8.674;2023-12-20T07:19:11;4.20;;;3.17;;
10596;SDS011;5346;48.766;8.674;2023-12-20T07:21:41;24.37;;;5.47;;
10596;SDS011;5346;48.766;8.674;2023-12-20T07:24:15;22.70;;;4.47;;
10596;SDS011;5346;48.766;8.674;2023-12-20T07:26:52;4.83;;;3.50;;
10596;SDS011;5346;48.766;8.674;2023-12-20T07:29:26;4.60;;;3.40;;
10596;SDS011;5346;48.766;8.674;2023-12-20T07:32:00;4.93;;;3.60;;
10596;SDS011;5346;48.766;8.674;2023-12-20T07:34:28;4.30;;;3.30;;
10596;SDS011;5346;48.766;8.674;2023-12-20T07:37:04;4.37;;;3.30;;
10596;SDS011;5346;48.766;8.674;2023-12-20T07:39:32;5.93;;;3.63;;
10596;SDS011;5346;48.766;8.674;2023-12-20T07:42:07;4.83;;;3.73;;
10596;SDS011;5346;48.766;8.674;2023-12-20T07:44:42;5.00;;;3.80;;
10596;SDS011;5346;48.766;8.674;2023-12-20T07:47:10;5.37;;;4.77;;
10596;SDS011;5346;48.766;8.674;2023-12-20T07:49:50;5.87;;;4.87;;
10596;SDS011;5346;48.766;8.674;2023-12-20T07:52:29;6.20;;;4.80;;
10596;SDS011;5346;48.766;8.674;2023-12-20T07:54:57;5.63;;;4.70;;
10596;SDS011;5346;48.766;8.674;2023-12-20T07:57:33;4.90;;;4.40;;
10596;SDS011;5346;48.766;8.674;2023-12-20T08:00:08;5.97;;;4.73;;
10596;SDS011;5346;48.766;8.674;2023-12-20T08:02:43;7.77;;;4.70;;
10596;SDS011;5346;48.766;8.674;2023-12-20T08:05:25;5.47;;;3.60;;
10596;SDS011;5346;48.766;8.674;2023-12-20T08:08:00;5.43;;;3.73;;
10596;SDS011;5346;48.766;8.674;2023-12-20T08:10:34;7.60;;;4.50;;
10596;SDS011;5346;48.766;8.674;2023-12-20T08:13:03;9.33;;;3.87;;
10596;SDS011;5346;48.766;8.674;2023-12-20T08:15:38;7.90;;;4.20;;
10596;SDS011;5346;48.766;8.674;2023-12-20T08:18:06;7.80;;;4.77;;
10596;SDS011;5346;48.766;8.674;2023-12-20T08:20:41;6.20;;;3.90;;
10596;SDS011;5346;48.766;8.674;2023-12-20T08:23:10;6.77;;;3.57;;
10596;SDS011;5346;48.766;8.674;2023-12-20T08:25:46;6.87;;;3.97;;
10596;SDS011;5346;48.766;8.674;2023-12-20T08:28:19;5.20;;;3.53;;
10596;SDS011;5346;48.766;8.674;2023-12-20T08:30:54;10.07;;;3.77;;
10596;SDS011;5346;48.766;8.674;2023-12-20T08:33:22;7.50;;;3.60;;
10596;SDS011;5346;48.766;8.674;2023-12-20T08:35:50;5.90;;;3.33;;
10596;SDS011;5346;48.766;8.674;2023-12-20T08:38:26;9.07;;;3.47;;
10596;SDS011;5346;48.766;8.674;2023-12-20T08:41:00;7.33;;;2.70;;
10596;SDS011;5346;48.766;8.674;2023-12-20T08:43:38;7.83;;;3.20;;
10596;SDS011;5346;48.766;8.674;2023-12-20T08:46:14;11.87;;;6.50;;
10596;SDS011;5346;48.766;8.674;2023-12-20T08:48:50;9.40;;;6.23;;
10596;SDS011;5346;48.766;8.674;2023-12-20T08:51:24;14.33;;;7.77;;
10596;SDS011;5346;48.766;8.674;2023-12-20T08:53:55;14.70;;;6.53;;
10596;SDS011;5346;48.766;8.674;2023-12-20T08:56:30;33.37;;;12.90;;
10596;SDS011;5346;48.766;8.674;2023-12-20T08:59:03;51.07;;;23.07;;
10596;SDS011;5346;48.766;8.674;2023-12-20T09:01:37;9.73;;;4.20;;
10596;SDS011;5346;48.766;8.674;2023-12-20T09:04:05;8.00;;;3.27;;
10596;SDS011;5346;48.766;8.674;2023-12-20T09:06:41;3.10;;;2.30;;
10596;SDS011;5346;48.766;8.674;2023-12-20T09:09:16;4.90;;;2.47;;
10596;SDS011;5346;48.766;8.674;2023-12-20T09:11:52;5.70;;;2.30;;
10596;SDS011;5346;48.766;8.674;2023-12-20T09:14:20;8.93;;;2.30;;
10596;SDS011;5346;48.766;8.674;2023-12-20T09:16:54;4.87;;;2.23;;
10596;SDS011;5346;48.766;8.674;2023-12-20T09:19:29;9.33;;;2.30;;
10596;SDS011;5346;48.766;8.674;2023-12-20T09:22:04;4.97;;;2.30;;
10596;SDS011;5346;48.766;8.674;2023-12-20T09:24:38;6.63;;;2.00;;
10596;SDS011;5346;48.766;8.674;2023-12-20T09:27:13;4.73;;;2.20;;
10596;SDS011;5346;48.766;8.674;2023-12-20T09:29:41;4.93;;;2.20;;
10596;SDS011;5346;48.766;8.674;2023-12-20T09:32:15;3.30;;;1.90;;
10596;SDS011;5346;48.766;8.674;2023-12-20T09:34:50;8.23;;;2.30;;
10596;SDS011;5346;48.766;8.674;2023-12-20T09:37:19;5.57;;;2.00;;
10596;SDS011;5346;48.766;8.674;2023-12-20T09:40:00;4.87;;;1.70;;
10596;SDS011;5346;48.766;8.674;2023-12-20T09:42:39;5.27;;;2.10;;
10596;SDS011;5346;48.766;8.674;2023-12-20T09:45:16;4.47;;;1.87;;
10596;SDS011;5346;48.766;8.674;2023-12-20T09:47:53;8.90;;;1.90;;
10596;SDS011;5346;48.766;8.674;2023-12-20T09:50:22;4.43;;;2.00;;
10596;SDS011;5346;48.766;8.674;2023-12-20T09:52:57;5.43;;;1.90;;
10596;SDS011;5346;48.766;8.674;2023-12-20T09:55:27;9.00;;;2.03;;
10596;SDS011;5346;48.766;8.674;2023-12-20T09:58:01;2.63;;;1.50;;
10596;SDS011;5346;48.766;8.674;2023-12-20T10:00:36;3.43;;;1.70;;
10596;SDS011;5346;48.766;8.674;2023-12-20T10:03:11;6.83;;;1.63;;
10596;SDS011;5346;48.766;8.674;2023-12-20T10:05:56;2.93;;;1.50;;
10596;SDS011;5346;48.766;8.674;2023-12-20T10:08:31;4.63;;;1.80;;
10596;SDS011;5346;48.766;8.674;2023-12-20T10:10:59;4.13;;;1.80;;
10596;SDS011;5346;48.766;8.674;2023-12-20T10:13:40;8.23;;;2.10;;
10596;SDS011;5346;48.766;8.674;2023-12-20T10:16:08;4.97;;;2.03;;
10596;SDS011;5346;48.766;8.674;2023-12-20T10:18:42;6.57;;;2.40;;
10596;SDS011;5346;48.766;8.674;2023-12-20T10:21:11;3.70;;;1.77;;
10596;SDS011;5346;48.766;8.674;2023-12-20T10:23:46;4.97;;;2.03;;
10596;SDS011;5346;48.766;8.674;2023-12-20T10:26:23;4.47;;;1.60;;
10596;SDS011;5346;48.766;8.674;2023-12-20T10:28:59;6.27;;;1.87;;
10596;SDS011;5346;48.766;8.674;2023-12-20T10:31:31;6.47;;;1.70;;
10596;SDS011;5346;48.766;8.674;2023-12-20T10:34:06;4.33;;;1.70;;
10596;SDS011;5346;48.766;8.674;2023-12-20T10:36:34;7.17;;;2.43;;
10596;SDS011;5346;48.766;8.674;2023-12-20T10:39:09;3.30;;;1.77;;
10596;SDS011;5346;48.766;8.674;2023-12-20T10:41:38;4.27;;;1.83;;
10596;SDS011;5346;48.766;8.674;2023-12-20T10:44:14;2.87;;;1.70;;
10596;SDS011;5346;48.766;8.674;2023-12-20T10:46:44;3.37;;;1.60;;
10596;SDS011;5346;48.766;8.674;2023-12-20T10:49:24;6.03;;;1.90;;
10596;SDS011;5346;48.766;8.674;2023-12-20T10:52:00;3.87;;;1.70;;
10596;SDS011;5346;48.766;8.674;2023-12-20T10:54:37;6.37;;;2.10;;
10596;SDS011;5346;48.766;8.674;2023-12-20T10:57:07;5.23;;;1.90;;
10596;SDS011;5346;48.766;8.674;2023-12-20T10:59:37;4.60;;;1.73;;
10596;SDS011;5346;48.766;8.674;2023-12-20T11:02:16;3.90;;;1.70;;
10596;SDS011;5346;48.766;8.674;2023-12-20T11:05:05;3.87;;;1.90;;
10596;SDS011;5346;48.766;8.674;2023-12-20T11:08:13;7.13;;;1.60;;
10596;SDS011;5346;48.766;8.674;2023-12-20T11:10:57;6.70;;;2.00;;
10596;SDS011;5346;48.766;8.674;2023-12-20T11:13:48;6.50;;;1.60;;
10596;SDS011;5346;48.766;8.674;2023-12-20T11:16:40;3.33;;;1.60;;
10596;SDS011;5346;48.766;8.674;2023-12-20T11:19:21;5.00;;;1.90;;
10596;SDS011;5346;48.766;8.674;2023-12-20T11:21:51;4.27;;;2.03;;
10596;SDS011;5346;48.766;8.674;2023-12-20T11:24:27;5.97;;;1.80;;
10596;SDS011;5346;48.766;8.674;2023-12-20T11:27:00;8.27;;;2.17;;
10596;SDS011;5346;48.766;8.674;2023-12-20T11:29:36;8.57;;;2.10;;
10596;SDS011;5346;48.766;8.674;2023-12-20T11:32:50;7.87;;;2.37;;
10596;SDS011;5346;48.766;8.674;2023-12-20T11:37:38;3.93;;;1.90;;
10596;SDS011;5346;48.766;8.674;2023-12-20T11:40:17;4.20;;;1.80;;
10596;SDS011;5346;48.766;8.674;2023-12-20T11:42:52;5.43;;;1.97;;
10596;SDS011;5346;48.766;8.674;2023-12-20T11:45:27;3.97;;;1.50;;
10596;SDS011;5346;48.766;8.674;2023-12-20T11:48:02;4.33;;;1.50;;
10596;SDS011;5346;48.766;8.674;2023-12-20T11:50:39;10.23;;;1.40;;
10596;SDS011;5346;48.766;8.674;2023-12-20T11:53:15;3.47;;;1.20;;
10596;SDS011;5346;48.766;8.674;2023-12-20T11:55:53;4.37;;;1.80;;
10596;SDS011;5346;48.766;8.674;2023-12-20T11:58:28;5.57;;;1.70;;
10596;SDS011;5346;48.766;8.674;2023-12-20T12:01:05;5.57;;;1.40;;
10596;SDS011;5346;48.766;8.674;2023-12-20T12:03:41;6.40;;;1.40;;
10596;SDS011;5346;48.766;8.674;2023-12-20T12:06:24;7.97;;;1.87;;
10596;SDS011;5346;48.766;8.674;2023-12-20T12:08:58;5.67;;;2.00;;
10596;SDS011;5346;48.766;8.674;2023-12-20T12:11:27;5.73;;;1.80;;
10596;SDS011;5346;48.766;8.674;2023-12-20T12:14:03;5.13;;;1.80;;
10596;SDS011;5346;48.766;8.674;2023-12-20T12:16:31;9.40;;;2.10;;
10596;SDS011;5346;48.766;8.674;2023-12-20T12:18:59;5.17;;;1.67;;
10596;SDS011;5346;48.766;8.674;2023-12-20T12:21:34;6.70;;;1.67;;
10596;SDS011;5346;48.766;8.674;2023-12-20T12:24:09;6.63;;;1.67;;
10596;SDS011;5346;48.766;8.674;2023-12-20T12:26:49;4.33;;;1.30;;
10596;SDS011;5346;48.766;8.674;2023-12-20T12:29:18;7.87;;;2.00;;
10596;SDS011;5346;48.766;8.674;2023-12-20T12:31:52;3.93;;;1.43;;
10596;SDS011;5346;48.766;8.674;2023-12-20T12:34:29;7.87;;;2.00;;
10596;SDS011;5346;48.766;8.674;2023-12-20T12:36:57;4.27;;;1.20;;
10596;SDS011;5346;48.766;8.674;2023-12-20T12:39:26;5.33;;;1.77;;
10596;SDS011;5346;48.766;8.674;2023-12-20T12:42:03;6.40;;;1.60;;
10596;SDS011;5346;48.766;8.674;2023-12-20T12:44:31;3.90;;;1.73;;
10596;SDS011;5346;48.766;8.674;2023-12-20T12:47:05;4.37;;;1.80;;
10596;SDS011;5346;48.766;8.674;2023-12-20T12:49:32;7.70;;;1.50;;
10596;SDS011;5346;48.766;8.674;2023-12-20T12:52:08;3.10;;;1.60;;
10596;SDS011;5346;48.766;8.674;2023-12-20T12:54:52;4.90;;;1.37;;
10596;SDS011;5346;48.766;8.674;2023-12-20T12:57:33;5.80;;;1.53;;
10596;SDS011;5346;48.766;8.674;2023-12-20T13:00:08;4.63;;;1.60;;
10596;SDS011;5346;48.766;8.674;2023-12-20T13:02:38;3.93;;;1.50;;
10596;SDS011;5346;48.766;8.674;2023-12-20T13:05:15;6.37;;;1.40;;
10596;SDS011;5346;48.766;8.674;2023-12-20T13:07:49;5.73;;;1.50;;
10596;SDS011;5346;48.766;8.674;2023-12-20T13:10:24;8.80;;;1.57;;
10596;SDS011;5346;48.766;8.674;2023-12-20T13:12:51;5.17;;;1.70;;
10596;SDS011;5346;48.766;8.674;2023-12-20T13:15:25;6.07;;;1.70;;
10596;SDS011;5346;48.766;8.674;2023-12-20T13:18:00;3.07;;;1.30;;
10596;SDS011;5346;48.766;8.674;2023-12-20T13:20:28;7.40;;;1.30;;
10596;SDS011;5346;48.766;8.674;2023-12-20T13:23:02;4.03;;;1.40;;
10596;SDS011;5346;48.766;8.674;2023-12-20T13:25:31;6.20;;;1.70;;
10596;SDS011;5346;48.766;8.674;2023-12-20T13:28:00;6.23;;;1.80;;
10596;SDS011;5346;48.766;8.674;2023-12-20T13:30:36;6.03;;;2.00;;
10596;SDS011;5346;48.766;8.674;2023-12-20T13:33:07;6.40;;;1.60;;
10596;SDS011;5346;48.766;8.674;2023-12-20T13:35:42;6.20;;;1.80;;
10596;SDS011;5346;48.766;8.674;2023-12-20T13:38:12;5.73;;;1.80;;
10596;SDS011;5346;48.766;8.674;2023-12-20T13:40:46;6.50;;;1.77;;
10596;SDS011;5346;48.766;8.674;2023-12-20T13:43:17;4.87;;;1.87;;
10596;SDS011;5346;48.766;8.674;2023-12-20T13:45:55;9.07;;;1.70;;
10596;SDS011;5346;48.766;8.674;2023-12-20T13:48:28;7.80;;;2.20;;
10596;SDS011;5346;48.766;8.674;2023-12-20T13:51:04;6.13;;;1.93;;
10596;SDS011;5346;48.766;8.674;2023-12-20T13:53:32;5.03;;;1.97;;
10596;SDS011;5346;48.766;8.674;2023-12-20T13:56:09;3.20;;;1.63;;
10596;SDS011;5346;48.766;8.674;2023-12-20T13:58:42;7.90;;;2.60;;
10596;SDS011;5346;48.766;8.674;2023-12-20T14:01:20;8.43;;;1.93;;
10596;SDS011;5346;48.766;8.674;2023-12-20T14:03:48;9.23;;;2.20;;
10596;SDS011;5346;48.766;8.674;2023-12-20T14:06:29;6.97;;;2.13;;
10596;SDS011;5346;48.766;8.674;2023-12-20T14:08:57;5.77;;;2.00;;
10596;SDS011;5346;48.766;8.674;2023-12-20T14:11:34;5.87;;;1.83;;
10596;SDS011;5346;48.766;8.674;2023-12-20T14:14:07;8.03;;;2.03;;
10596;SDS011;5346;48.766;8.674;2023-12-20T14:16:42;4.83;;;1.90;;
10596;SDS011;5346;48.766;8.674;2023-12-20T14:19:11;6.37;;;2.03;;
10596;SDS011;5346;48.766;8.674;2023-12-20T14:21:46;6.13;;;1.97;;
10596;SDS011;5346;48.766;8.674;2023-12-20T14:24:16;6.60;;;2.03;;
10596;SDS011;5346;48.766;8.674;2023-12-20T14:26:55;8.77;;;2.00;;
10596;SDS011;5346;48.766;8.674;2023-12-20T14:29:25;4.13;;;1.90;;
10596;SDS011;5346;48.766;8.674;2023-12-20T14:32:01;7.83;;;2.27;;
10596;SDS011;5346;48.766;8.674;2023-12-20T14:34:39;7.07;;;2.13;;
10596;SDS011;5346;48.766;8.674;2023-12-20T14:37:22;5.20;;;1.60;;
10596;SDS011;5346;48.766;8.674;2023-12-20T14:39:50;3.23;;;1.60;;
10596;SDS011;5346;48.766;8.674;2023-12-20T14:42:25;7.87;;;2.10;;
10596;SDS011;5346;48.766;8.674;2023-12-20T14:44:59;3.87;;;1.73;;
10596;SDS011;5346;48.766;8.674;2023-12-20T14:47:27;6.13;;;1.83;;
10596;SDS011;5346;48.766;8.674;2023-12-20T14:50:02;8.37;;;2.07;;
10596;SDS011;5346;48.766;8.674;2023-12-20T14:52:32;7.13;;;2.00;;
10596;SDS011;5346;48.766;8.674;2023-12-20T14:55:07;8.27;;;2.03;;
10596;SDS011;5346;48.766;8.674;2023-12-20T14:57:36;7.80;;;2.00;;
10596;SDS011;5346;48.766;8.674;2023-12-20T15:00:04;5.57;;;1.97;;
10596;SDS011;5346;48.766;8.674;2023-12-20T15:02:42;5.37;;;2.00;;
10596;SDS011;5346;48.766;8.674;2023-12-20T15:05:10;3.77;;;1.97;;
10596;SDS011;5346;48.766;8.674;2023-12-20T15:07:45;4.83;;;1.53;;
10596;SDS011;5346;48.766;8.674;2023-12-20T15:10:21;5.60;;;1.60;;
10596;SDS011;5346;48.766;8.674;2023-12-20T15:12:56;6.93;;;1.70;;
10596;SDS011;5346;48.766;8.674;2023-12-20T15:15:30;6.53;;;1.93;;
10596;SDS011;5346;48.766;8.674;2023-12-20T15:18:00;5.13;;;1.80;;
10596;SDS011;5346;48.766;8.674;2023-12-20T15:20:36;5.77;;;1.53;;
10596;SDS011;5346;48.766;8.674;2023-12-20T15:23:05;6.33;;;1.87;;
10596;SDS011;5346;48.766;8.674;2023-12-20T15:25:41;5.03;;;1.80;;
10596;SDS011;5346;48.766;8.674;2023-12-20T15:28:16;9.33;;;1.73;;
10596;SDS011;5346;48.766;8.674;2023-12-20T15:30:44;7.90;;;1.60;;
10596;SDS011;5346;48.766;8.674;2023-12-20T15:33:21;9.57;;;2.03;;
10596;SDS011;5346;48.766;8.674;2023-12-20T15:35:49;4.50;;;1.67;;
10596;SDS011;5346;48.766;8.674;2023-12-20T15:38:23;7.23;;;2.03;;
10596;SDS011;5346;48.766;8.674;2023-12-20T15:40:50;5.03;;;1.80;;
10596;SDS011;5346;48.766;8.674;2023-12-20T15:43:25;5.63;;;2.10;;